sensor_id;sensor_type;location;lat;lon;timestamp;pressure;altitude;pressure_sealevel;temperature;humidity
24486;BME280;13449;49.374;8.584;2023-03-23T00:01:57;99878.94;;;14.68;100.00
24486;BME280;13449;49.374;8.584;2023-03-23T00:04:22;99883.72;;;14.59;100.00
24486;BME280;13449;49.374;8.584;2023-03-23T00:06:51;99881.59;;;14.68;100.00
24486;BME280;13449;49.374;8.584;2023-03-23T00:09:18;99880.59;;;14.69;100.00
24486;BME280;13449;49.374;8.584;2023-03-23T00:11:49;99881.50;;;14.56;100.00
24486;BME280;13449;49.374;8.584;2023-03-23T00:14:18;99872.09;;;14.60;100.00
24486;BME280;13449;49.374;8.584;2023-03-23T00:16:48;99871.47;;;14.58;100.00
24486;BME280;13449;49.374;8.584;2023-03-23T00:19:14;99854.56;;;14.59;100.00
24486;BME280;13449;49.374;8.584;2023-03-23T00:21:41;99853.19;;;14.50;100.00
24486;BME280;13449;49.374;8.584;2023-03-23T00:26:37;99859.09;;;14.52;100.00
24486;BME280;13449;49.374;8.584;2023-03-23T00:29:07;99855.00;;;14.56;100.00
24486;BME280;13449;49.374;8.584;2023-03-23T00:31:33;99855.63;;;14.52;100.00
24486;BME280;13449;49.374;8.584;2023-03-23T00:34:02;99844.63;;;14.48;100.00
24486;BME280;13449;49.374;8.584;2023-03-23T00:36:32;99845.22;;;14.50;100.00
24486;BME280;13449;49.374;8.584;2023-03-23T00:39:01;99847.84;;;14.57;100.00
24486;BME280;13449;49.374;8.584;2023-03-23T00:41:28;99843.91;;;14.66;100.00
24486;BME280;13449;49.374;8.584;2023-03-23T00:43:55;99842.50;;;14.63;100.00
24486;BME280;13449;49.374;8.584;2023-03-23T00:46:21;99841.88;;;14.61;100.00
24486;BME280;13449;49.374;8.584;2023-03-23T00:48:47;99842.31;;;14.58;100.00
24486;BME280;13449;49.374;8.584;2023-03-23T00:51:13;99844.16;;;14.58;100.00
24486;BME280;13449;49.374;8.584;2023-03-23T00:53:39;99843.00;;;14.47;100.00
24486;BME280;13449;49.374;8.584;2023-03-23T00:56:07;99845.44;;;14.48;100.00
24486;BME280;13449;49.374;8.584;2023-03-23T00:58:33;99852.41;;;14.43;100.00
24486;BME280;13449;49.374;8.584;2023-03-23T01:00:59;99863.53;;;14.58;100.00
24486;BME280;13449;49.374;8.584;2023-03-23T01:03:24;99857.25;;;14.46;100.00
24486;BME280;13449;49.374;8.584;2023-03-23T01:05:51;99857.88;;;14.48;100.00
24486;BME280;13449;49.374;8.584;2023-03-23T01:08:23;99850.78;;;14.42;100.00
24486;BME280;13449;49.374;8.584;2023-03-23T01:10:49;99851.06;;;14.34;100.00
24486;BME280;13449;49.374;8.584;2023-03-23T01:13:15;99843.31;;;14.32;100.00
24486;BME280;13449;49.374;8.584;2023-03-23T01:15:41;99846.63;;;14.27;100.00
24486;BME280;13449;49.374;8.584;2023-03-23T01:18:08;99844.16;;;14.26;100.00
24486;BME280;13449;49.374;8.584;2023-03-23T01:20:37;99832.44;;;14.15;100.00
24486;BME280;13449;49.374;8.584;2023-03-23T01:23:02;99834.91;;;14.10;100.00
24486;BME280;13449;49.374;8.584;2023-03-23T01:25:30;99837.00;;;14.01;100.00
24486;BME280;13449;49.374;8.584;2023-03-23T01:27:56;99831.91;;;14.00;100.00
24486;BME280;13449;49.374;8.584;2023-03-23T01:30:24;99821.19;;;13.88;100.00
24486;BME280;13449;49.374;8.584;2023-03-23T01:32:51;99814.22;;;13.94;100.00
24486;BME280;13449;49.374;8.584;2023-03-23T01:35:16;99816.63;;;14.02;100.00
24486;BME280;13449;49.374;8.584;2023-03-23T01:37:42;99813.41;;;13.93;100.00
24486;BME280;13449;49.374;8.584;2023-03-23T01:40:09;99810.22;;;13.85;100.00
24486;BME280;13449;49.374;8.584;2023-03-23T01:42:36;99809.75;;;13.94;100.00
24486;BME280;13449;49.374;8.584;2023-03-23T01:47:56;99809.16;;;13.92;100.00
24486;BME280;13449;49.374;8.584;2023-03-23T01:50:23;99800.44;;;13.85;100.00
24486;BME280;13449;49.374;8.584;2023-03-23T01:52:52;99800.09;;;13.75;100.00
24486;BME280;13449;49.374;8.584;2023-03-23T01:55:19;99803.38;;;13.70;100.00
24486;BME280;13449;49.374;8.584;2023-03-23T01:57:46;99797.22;;;13.76;100.00
24486;BME280;13449;49.374;8.584;2023-03-23T02:00:13;99790.75;;;13.72;100.00
24486;BME280;13449;49.374;8.584;2023-03-23T02:02:43;99786.03;;;13.74;100.00
24486;BME280;13449;49.374;8.584;2023-03-23T02:05:23;99777.28;;;13.74;100.00
24486;BME280;13449;49.374;8.584;2023-03-23T02:07:50;99769.94;;;13.76;100.00
24486;BME280;13449;49.374;8.584;2023-03-23T02:10:16;99764.22;;;13.79;100.00
24486;BME280;13449;49.374;8.584;2023-03-23T02:12:44;99760.22;;;13.70;100.00
24486;BME280;13449;49.374;8.584;2023-03-23T02:15:10;99762.06;;;13.69;100.00
24486;BME280;13449;49.374;8.584;2023-03-23T02:17:39;99758.19;;;13.72;100.00
24486;BME280;13449;49.374;8.584;2023-03-23T02:20:32;99763.25;;;13.73;100.00
24486;BME280;13449;49.374;8.584;2023-03-23T02:23:24;99764.84;;;13.74;100.00
24486;BME280;13449;49.374;8.584;2023-03-23T02:26:11;99760.69;;;13.60;100.00
24486;BME280;13449;49.374;8.584;2023-03-23T02:29:02;99769.88;;;13.51;100.00
24486;BME280;13449;49.374;8.584;2023-03-23T02:34:41;99774.25;;;13.70;100.00
24486;BME280;13449;49.374;8.584;2023-03-23T02:37:14;99767.13;;;13.71;100.00
24486;BME280;13449;49.374;8.584;2023-03-23T02:39:53;99771.59;;;13.70;100.00
24486;BME280;13449;49.374;8.584;2023-03-23T02:42:28;99766.19;;;13.59;100.00
24486;BME280;13449;49.374;8.584;2023-03-23T02:44:59;99757.00;;;13.61;100.00
24486;BME280;13449;49.374;8.584;2023-03-23T02:47:29;99749.06;;;13.61;100.00
24486;BME280;13449;49.374;8.584;2023-03-23T02:49:56;99752.97;;;13.59;100.00
24486;BME280;13449;49.374;8.584;2023-03-23T02:52:30;99749.94;;;13.48;100.00
24486;BME280;13449;49.374;8.584;2023-03-23T02:54:57;99740.41;;;13.47;100.00
24486;BME280;13449;49.374;8.584;2023-03-23T02:57:25;99739.59;;;13.47;100.00
24486;BME280;13449;49.374;8.584;2023-03-23T02:59:54;99736.34;;;13.45;100.00
24486;BME280;13449;49.374;8.584;2023-03-23T03:02:25;99743.00;;;13.54;100.00
24486;BME280;13449;49.374;8.584;2023-03-23T03:05:13;99738.31;;;13.56;100.00
24486;BME280;13449;49.374;8.584;2023-03-23T03:07:51;99738.50;;;13.54;100.00
24486;BME280;13449;49.374;8.584;2023-03-23T03:10:57;99740.63;;;13.46;100.00
24486;BME280;13449;49.374;8.584;2023-03-23T03:19:04;99739.41;;;13.42;100.00
24486;BME280;13449;49.374;8.584;2023-03-23T03:21:35;99739.41;;;13.42;100.00
24486;BME280;13449;49.374;8.584;2023-03-23T03:24:03;99738.59;;;13.41;100.00
24486;BME280;13449;49.374;8.584;2023-03-23T03:26:30;99729.25;;;13.39;100.00
24486;BME280;13449;49.374;8.584;2023-03-23T03:28:57;99731.88;;;13.39;100.00
24486;BME280;13449;49.374;8.584;2023-03-23T03:31:28;99737.59;;;13.42;100.00
24486;BME280;13449;49.374;8.584;2023-03-23T03:33:54;99739.41;;;13.42;100.00
24486;BME280;13449;49.374;8.584;2023-03-23T03:36:24;99745.31;;;13.44;100.00
24486;BME280;13449;49.374;8.584;2023-03-23T03:38:51;99747.41;;;13.22;100.00
24486;BME280;13449;49.374;8.584;2023-03-23T03:41:20;99748.00;;;13.30;100.00
24486;BME280;13449;49.374;8.584;2023-03-23T03:43:45;99746.53;;;13.41;100.00
24486;BME280;13449;49.374;8.584;2023-03-23T03:46:11;99753.31;;;13.30;100.00
24486;BME280;13449;49.374;8.584;2023-03-23T03:48:37;99754.31;;;13.36;100.00
24486;BME280;13449;49.374;8.584;2023-03-23T03:51:03;99749.00;;;13.36;100.00
24486;BME280;13449;49.374;8.584;2023-03-23T03:53:29;99736.69;;;13.55;100.00
24486;BME280;13449;49.374;8.584;2023-03-23T03:55:56;99734.03;;;13.55;100.00
24486;BME280;13449;49.374;8.584;2023-03-23T03:58:27;99737.56;;;13.49;100.00
24486;BME280;13449;49.374;8.584;2023-03-23T04:00:58;99735.72;;;13.49;100.00
24486;BME280;13449;49.374;8.584;2023-03-23T04:03:24;99732.25;;;13.49;100.00
24486;BME280;13449;49.374;8.584;2023-03-23T04:05:51;99737.38;;;13.44;100.00
24486;BME280;13449;49.374;8.584;2023-03-23T04:08:16;99723.63;;;13.60;100.00
24486;BME280;13449;49.374;8.584;2023-03-23T04:10:43;99740.78;;;13.51;100.00
24486;BME280;13449;49.374;8.584;2023-03-23T04:13:08;99740.28;;;13.67;100.00
24486;BME280;13449;49.374;8.584;2023-03-23T04:15:36;99735.81;;;13.61;100.00
24486;BME280;13449;49.374;8.584;2023-03-23T04:18:01;99748.09;;;13.55;100.00
24486;BME280;13449;49.374;8.584;2023-03-23T04:20:31;99748.59;;;13.71;100.00
24486;BME280;13449;49.374;8.584;2023-03-23T04:23:00;99751.00;;;13.79;100.00
24486;BME280;13449;49.374;8.584;2023-03-23T04:25:27;99759.75;;;13.79;100.00
24486;BME280;13449;49.374;8.584;2023-03-23T04:27:53;99760.00;;;13.71;100.00
24486;BME280;13449;49.374;8.584;2023-03-23T04:30:22;99756.69;;;13.83;100.00
24486;BME280;13449;49.374;8.584;2023-03-23T04:32:50;99760.94;;;13.84;100.00
24486;BME280;13449;49.374;8.584;2023-03-23T04:35:19;99760.75;;;13.85;100.00
24486;BME280;13449;49.374;8.584;2023-03-23T04:37:45;99762.97;;;13.88;100.00
24486;BME280;13449;49.374;8.584;2023-03-23T04:40:11;99762.91;;;13.95;100.00
24486;BME280;13449;49.374;8.584;2023-03-23T04:42:43;99763.81;;;13.82;100.00
24486;BME280;13449;49.374;8.584;2023-03-23T04:45:14;99769.06;;;13.89;100.00
24486;BME280;13449;49.374;8.584;2023-03-23T04:47:41;99768.28;;;13.82;100.00
24486;BME280;13449;49.374;8.584;2023-03-23T04:50:08;99777.31;;;13.67;100.00
24486;BME280;13449;49.374;8.584;2023-03-23T04:52:36;99786.75;;;13.95;100.00
24486;BME280;13449;49.374;8.584;2023-03-23T04:55:04;99788.88;;;13.79;100.00
24486;BME280;13449;49.374;8.584;2023-03-23T04:57:30;99787.03;;;13.80;100.00
24486;BME280;13449;49.374;8.584;2023-03-23T04:59:56;99788.09;;;13.72;100.00
24486;BME280;13449;49.374;8.584;2023-03-23T05:02:21;99793.25;;;13.61;100.00
24486;BME280;13449;49.374;8.584;2023-03-23T05:04:47;99792.81;;;13.64;100.00
24486;BME280;13449;49.374;8.584;2023-03-23T05:07:14;99789.81;;;13.53;100.00
24486;BME280;13449;49.374;8.584;2023-03-23T05:09:40;99793.47;;;13.59;100.00
24486;BME280;13449;49.374;8.584;2023-03-23T05:12:08;99802.34;;;13.71;100.00
24486;BME280;13449;49.374;8.584;2023-03-23T05:14:34;99797.69;;;13.67;100.00
24486;BME280;13449;49.374;8.584;2023-03-23T05:17:00;99798.69;;;13.72;100.00
24486;BME280;13449;49.374;8.584;2023-03-23T05:19:26;99796.88;;;13.66;100.00
24486;BME280;13449;49.374;8.584;2023-03-23T05:21:54;99798.31;;;13.69;100.00
24486;BME280;13449;49.374;8.584;2023-03-23T05:24:21;99792.25;;;13.62;100.00
24486;BME280;13449;49.374;8.584;2023-03-23T05:26:46;99800.19;;;13.62;100.00
24486;BME280;13449;49.374;8.584;2023-03-23T05:29:14;99802.63;;;13.56;100.00
24486;BME280;13449;49.374;8.584;2023-03-23T05:31:39;99804.28;;;13.51;100.00
24486;BME280;13449;49.374;8.584;2023-03-23T05:34:05;99805.28;;;13.56;100.00
24486;BME280;13449;49.374;8.584;2023-03-23T05:36:30;99806.13;;;13.50;100.00
24486;BME280;13449;49.374;8.584;2023-03-23T05:38:56;99803.44;;;13.57;100.00
24486;BME280;13449;49.374;8.584;2023-03-23T05:41:25;99807.22;;;13.74;100.00
24486;BME280;13449;49.374;8.584;2023-03-23T05:43:50;99798.66;;;13.79;100.00
24486;BME280;13449;49.374;8.584;2023-03-23T05:46:16;99795.63;;;13.75;100.00
24486;BME280;13449;49.374;8.584;2023-03-23T05:48:44;99794.81;;;13.75;100.00
24486;BME280;13449;49.374;8.584;2023-03-23T05:51:09;99796.19;;;13.77;100.00
24486;BME280;13449;49.374;8.584;2023-03-23T05:53:35;99797.94;;;13.90;100.00
24486;BME280;13449;49.374;8.584;2023-03-23T05:56:03;99790.00;;;13.90;100.00
24486;BME280;13449;49.374;8.584;2023-03-23T05:58:29;99804.03;;;13.97;100.00
24486;BME280;13449;49.374;8.584;2023-03-23T06:00:57;99808.34;;;13.92;100.00
24486;BME280;13449;49.374;8.584;2023-03-23T06:03:22;99813.38;;;13.68;100.00
24486;BME280;13449;49.374;8.584;2023-03-23T06:05:48;99810.44;;;13.83;100.00
24486;BME280;13449;49.374;8.584;2023-03-23T06:08:16;99818.31;;;13.90;100.00
24486;BME280;13449;49.374;8.584;2023-03-23T06:10:42;99820.13;;;13.96;100.00
24486;BME280;13449;49.374;8.584;2023-03-23T06:13:07;99827.22;;;14.02;100.00
24486;BME280;13449;49.374;8.584;2023-03-23T06:15:32;99827.22;;;14.02;100.00
24486;BME280;13449;49.374;8.584;2023-03-23T06:17:59;99834.13;;;14.03;100.00
24486;BME280;13449;49.374;8.584;2023-03-23T06:20:24;99827.34;;;14.14;100.00
24486;BME280;13449;49.374;8.584;2023-03-23T06:22:50;99838.19;;;14.06;100.00
24486;BME280;13449;49.374;8.584;2023-03-23T06:25:18;99834.13;;;14.03;100.00
24486;BME280;13449;49.374;8.584;2023-03-23T06:27:44;99843.72;;;14.04;100.00
24486;BME280;13449;49.374;8.584;2023-03-23T06:30:11;99842.66;;;14.12;100.00
24486;BME280;13449;49.374;8.584;2023-03-23T06:32:39;99842.66;;;14.12;100.00
24486;BME280;13449;49.374;8.584;2023-03-23T06:35:05;99833.88;;;14.11;100.00
24486;BME280;13449;49.374;8.584;2023-03-23T06:37:34;99831.25;;;14.11;100.00
24486;BME280;13449;49.374;8.584;2023-03-23T06:40:00;99830.63;;;14.41;100.00
24486;BME280;13449;49.374;8.584;2023-03-23T06:42:25;99829.00;;;14.40;100.00
24486;BME280;13449;49.374;8.584;2023-03-23T06:44:53;99834.13;;;14.35;100.00
24486;BME280;13449;49.374;8.584;2023-03-23T06:47:23;99841.94;;;14.55;100.00
24486;BME280;13449;49.374;8.584;2023-03-23T06:49:49;99837.53;;;14.42;100.00
24486;BME280;13449;49.374;8.584;2023-03-23T06:52:19;99840.34;;;14.47;100.00
24486;BME280;13449;49.374;8.584;2023-03-23T06:54:48;99840.91;;;14.56;100.00
24486;BME280;13449;49.374;8.584;2023-03-23T06:57:13;99844.41;;;14.49;100.00
24486;BME280;13449;49.374;8.584;2023-03-23T06:59:38;99857.84;;;14.55;100.00
24486;BME280;13449;49.374;8.584;2023-03-23T07:02:04;99864.31;;;14.59;100.00
24486;BME280;13449;49.374;8.584;2023-03-23T07:04:29;99868.25;;;14.56;100.00
24486;BME280;13449;49.374;8.584;2023-03-23T07:06:55;99867.53;;;14.67;100.00
24486;BME280;13449;49.374;8.584;2023-03-23T07:09:21;99865.16;;;14.59;100.00
24486;BME280;13449;49.374;8.584;2023-03-23T07:11:47;99868.63;;;14.60;100.00
24486;BME280;13449;49.374;8.584;2023-03-23T07:14:15;99877.69;;;14.70;100.00
24486;BME280;13449;49.374;8.584;2023-03-23T07:16:40;99884.34;;;14.80;100.00
24486;BME280;13449;49.374;8.584;2023-03-23T07:19:05;99897.06;;;14.71;100.00
24486;BME280;13449;49.374;8.584;2023-03-23T07:21:31;99903.97;;;14.72;100.00
24486;BME280;13449;49.374;8.584;2023-03-23T07:23:56;99909.66;;;14.51;100.00
24486;BME280;13449;49.374;8.584;2023-03-23T07:26:22;99904.50;;;14.56;100.00
24486;BME280;13449;49.374;8.584;2023-03-23T07:28:47;99905.25;;;14.69;100.00
24486;BME280;13449;49.374;8.584;2023-03-23T07:31:13;99905.50;;;14.61;100.00
24486;BME280;13449;49.374;8.584;2023-03-23T07:33:38;99906.53;;;14.60;100.00
24486;BME280;13449;49.374;8.584;2023-03-23T07:36:05;99905.25;;;14.69;100.00
24486;BME280;13449;49.374;8.584;2023-03-23T07:38:31;99904.09;;;14.59;100.00
24486;BME280;13449;49.374;8.584;2023-03-23T07:40:58;99911.56;;;14.68;100.00
24486;BME280;13449;49.374;8.584;2023-03-23T07:43:25;99914.75;;;14.77;100.00
24486;BME280;13449;49.374;8.584;2023-03-23T07:45:51;99914.50;;;14.60;100.00
24486;BME280;13449;49.374;8.584;2023-03-23T07:48:19;99918.38;;;14.58;100.00
24486;BME280;13449;49.374;8.584;2023-03-23T07:50:45;99925.72;;;14.56;100.00
24486;BME280;13449;49.374;8.584;2023-03-23T07:53:11;99935.28;;;14.63;100.00
24486;BME280;13449;49.374;8.584;2023-03-23T07:55:40;99940.38;;;14.58;100.00
24486;BME280;13449;49.374;8.584;2023-03-23T07:58:05;99939.38;;;14.59;100.00
24486;BME280;13449;49.374;8.584;2023-03-23T08:00:31;99935.47;;;14.62;100.00
24486;BME280;13449;49.374;8.584;2023-03-23T08:02:58;99935.69;;;14.60;100.00
24486;BME280;13449;49.374;8.584;2023-03-23T08:05:25;99935.97;;;14.77;100.00
24486;BME280;13449;49.374;8.584;2023-03-23T08:07:52;99938.94;;;14.87;100.00
24486;BME280;13449;49.374;8.584;2023-03-23T08:10:20;99930.50;;;14.97;100.00
24486;BME280;13449;49.374;8.584;2023-03-23T08:12:52;99926.38;;;15.01;100.00
24486;BME280;13449;49.374;8.584;2023-03-23T08:15:21;99936.13;;;15.07;100.00
24486;BME280;13449;49.374;8.584;2023-03-23T08:17:47;99949.81;;;15.04;100.00
24486;BME280;13449;49.374;8.584;2023-03-23T08:20:13;99953.19;;;14.93;100.00
24486;BME280;13449;49.374;8.584;2023-03-23T08:22:41;99949.66;;;14.99;100.00
24486;BME280;13449;49.374;8.584;2023-03-23T08:25:09;99953.94;;;15.00;100.00
24486;BME280;13449;49.374;8.584;2023-03-23T08:27:36;99952.03;;;15.07;100.00
24486;BME280;13449;49.374;8.584;2023-03-23T08:30:02;99953.94;;;15.00;100.00
24486;BME280;13449;49.374;8.584;2023-03-23T08:32:32;99968.06;;;14.94;100.00
24486;BME280;13449;49.374;8.584;2023-03-23T08:34:58;99967.06;;;14.95;100.00
24486;BME280;13449;49.374;8.584;2023-03-23T08:37:23;99957.94;;;14.84;100.00
24486;BME280;13449;49.374;8.584;2023-03-23T08:39:53;99973.59;;;14.92;100.00
24486;BME280;13449;49.374;8.584;2023-03-23T08:42:19;99972.75;;;14.99;100.00
24486;BME280;13449;49.374;8.584;2023-03-23T08:44:44;99975.44;;;14.92;100.00
24486;BME280;13449;49.374;8.584;2023-03-23T08:47:10;99970.78;;;14.87;100.00
24486;BME280;13449;49.374;8.584;2023-03-23T08:49:35;99975.09;;;14.82;100.00
24486;BME280;13449;49.374;8.584;2023-03-23T08:52:02;99970.63;;;14.82;100.00
24486;BME280;13449;49.374;8.584;2023-03-23T08:54:28;99982.28;;;14.75;100.00
24486;BME280;13449;49.374;8.584;2023-03-23T08:56:58;99974.31;;;14.75;100.00
24486;BME280;13449;49.374;8.584;2023-03-23T08:59:24;99973.91;;;14.78;100.00
24486;BME280;13449;49.374;8.584;2023-03-23T09:01:50;99975.19;;;14.68;100.00
24486;BME280;13449;49.374;8.584;2023-03-23T09:04:15;99973.59;;;14.92;100.00
24486;BME280;13449;49.374;8.584;2023-03-23T09:06:41;99983.78;;;14.95;100.00
24486;BME280;13449;49.374;8.584;2023-03-23T09:09:06;99990.09;;;15.19;100.00
24486;BME280;13449;49.374;8.584;2023-03-23T09:11:35;99984.16;;;15.24;100.00
24486;BME280;13449;49.374;8.584;2023-03-23T09:14:02;99984.47;;;15.09;100.00
24486;BME280;13449;49.374;8.584;2023-03-23T09:16:28;99982.44;;;15.30;100.00
24486;BME280;13449;49.374;8.584;2023-03-23T09:18:54;99987.75;;;15.30;100.00
24486;BME280;13449;49.374;8.584;2023-03-23T09:21:26;99989.22;;;15.26;100.00
24486;BME280;13449;49.374;8.584;2023-03-23T09:23:54;99997.06;;;15.14;100.00
24486;BME280;13449;49.374;8.584;2023-03-23T09:26:25;99998.97;;;15.32;100.00
24486;BME280;13449;49.374;8.584;2023-03-23T09:28:51;100002.50;;;15.26;100.00
24486;BME280;13449;49.374;8.584;2023-03-23T09:31:19;99997.06;;;15.39;100.00
24486;BME280;13449;49.374;8.584;2023-03-23T09:33:46;100001.03;;;15.30;100.00
24486;BME280;13449;49.374;8.584;2023-03-23T09:36:12;99999.84;;;15.26;100.00
24486;BME280;13449;49.374;8.584;2023-03-23T09:38:40;100015.22;;;15.17;100.00
24486;BME280;13449;49.374;8.584;2023-03-23T09:41:45;100012.41;;;15.12;100.00
24486;BME280;13449;49.374;8.584;2023-03-23T09:46:52;100017.44;;;15.20;100.00
24486;BME280;13449;49.374;8.584;2023-03-23T09:49:41;100019.88;;;15.22;100.00
24486;BME280;13449;49.374;8.584;2023-03-23T09:52:13;100020.03;;;15.27;100.00
24486;BME280;13449;49.374;8.584;2023-03-23T09:54:41;100021.63;;;15.34;100.00
24486;BME280;13449;49.374;8.584;2023-03-23T09:57:32;100020.97;;;15.39;100.00
24486;BME280;13449;49.374;8.584;2023-03-23T10:02:59;100018.69;;;15.86;100.00
24486;BME280;13449;49.374;8.584;2023-03-23T10:05:36;100009.94;;;16.34;100.00
24486;BME280;13449;49.374;8.584;2023-03-23T10:08:10;100010.94;;;16.51;100.00
24486;BME280;13449;49.374;8.584;2023-03-23T10:15:50;100005.81;;;17.10;100.00
24486;BME280;13449;49.374;8.584;2023-03-23T10:18:41;100000.59;;;17.03;100.00
24486;BME280;13449;49.374;8.584;2023-03-23T10:21:14;99993.88;;;17.01;100.00
24486;BME280;13449;49.374;8.584;2023-03-23T10:23:48;99990.53;;;17.17;100.00
24486;BME280;13449;49.374;8.584;2023-03-23T10:26:36;99985.28;;;16.99;100.00
24486;BME280;13449;49.374;8.584;2023-03-23T10:31:49;99979.88;;;16.64;100.00
24486;BME280;13449;49.374;8.584;2023-03-23T10:34:29;99993.03;;;16.58;100.00
24486;BME280;13449;49.374;8.584;2023-03-23T10:37:12;99987.31;;;16.43;100.00
24486;BME280;13449;49.374;8.584;2023-03-23T10:39:59;99991.66;;;16.56;100.00
24486;BME280;13449;49.374;8.584;2023-03-23T10:42:37;99984.06;;;16.71;100.00
24486;BME280;13449;49.374;8.584;2023-03-23T10:45:20;99987.84;;;16.94;100.00
24486;BME280;13449;49.374;8.584;2023-03-23T10:48:15;99996.25;;;16.79;100.00
24486;BME280;13449;49.374;8.584;2023-03-23T10:50:44;99989.47;;;16.65;100.00
24486;BME280;13449;49.374;8.584;2023-03-23T10:53:21;99997.50;;;16.76;100.00
24486;BME280;13449;49.374;8.584;2023-03-23T10:55:50;100000.41;;;16.75;100.00
24486;BME280;13449;49.374;8.584;2023-03-23T10:58:27;100003.50;;;16.72;100.00
24486;BME280;13449;49.374;8.584;2023-03-23T11:00:58;100006.47;;;16.64;100.00
24486;BME280;13449;49.374;8.584;2023-03-23T11:03:44;100016.53;;;16.62;100.00
24486;BME280;13449;49.374;8.584;2023-03-23T11:06:20;100014.50;;;16.45;100.00
24486;BME280;13449;49.374;8.584;2023-03-23T11:08:54;100022.66;;;16.13;100.00
24486;BME280;13449;49.374;8.584;2023-03-23T11:13:56;100022.66;;;16.32;100.00
24486;BME280;13449;49.374;8.584;2023-03-23T11:16:25;100024.50;;;16.31;100.00
24486;BME280;13449;49.374;8.584;2023-03-23T11:18:51;100023.88;;;16.48;100.00
24486;BME280;13449;49.374;8.584;2023-03-23T11:21:19;100025.16;;;16.57;100.00
24486;BME280;13449;49.374;8.584;2023-03-23T11:23:58;100028.78;;;16.63;100.00
24486;BME280;13449;49.374;8.584;2023-03-23T11:26:29;100037.44;;;16.58;100.00
24486;BME280;13449;49.374;8.584;2023-03-23T11:29:17;100025.56;;;16.72;100.00
24486;BME280;13449;49.374;8.584;2023-03-23T11:31:46;100026.38;;;16.73;100.00
24486;BME280;13449;49.374;8.584;2023-03-23T11:34:24;100017.22;;;16.87;100.00
24486;BME280;13449;49.374;8.584;2023-03-23T11:36:53;100015.97;;;17.01;100.00
24486;BME280;13449;49.374;8.584;2023-03-23T11:39:31;100010.78;;;17.18;100.00
24486;BME280;13449;49.374;8.584;2023-03-23T11:42:11;100012.47;;;16.89;100.00
24486;BME280;13449;49.374;8.584;2023-03-23T11:44:41;100007.63;;;16.98;100.00
24486;BME280;13449;49.374;8.584;2023-03-23T11:47:22;100018.84;;;16.70;100.00
24486;BME280;13449;49.374;8.584;2023-03-23T11:50:08;100001.88;;;16.71;100.00
24486;BME280;13449;49.374;8.584;2023-03-23T11:52:49;100003.69;;;16.58;100.00
24486;BME280;13449;49.374;8.584;2023-03-23T11:55:20;100007.59;;;16.56;100.00
24486;BME280;13449;49.374;8.584;2023-03-23T11:57:47;99998.94;;;16.30;100.00
24486;BME280;13449;49.374;8.584;2023-03-23T12:00:14;100008.91;;;16.35;100.00
24486;BME280;13449;49.374;8.584;2023-03-23T12:06:06;100014.78;;;16.07;100.00
24486;BME280;13449;49.374;8.584;2023-03-23T12:11:27;100017.72;;;15.80;100.00
24486;BME280;13449;49.374;8.584;2023-03-23T12:14:15;100003.78;;;16.03;100.00
24486;BME280;13449;49.374;8.584;2023-03-23T12:17:17;100006.03;;;16.18;100.00
24486;BME280;13449;49.374;8.584;2023-03-23T12:20:24;100012.63;;;16.16;100.00
24486;BME280;13449;49.374;8.584;2023-03-23T12:25:43;99992.47;;;16.26;100.00
24486;BME280;13449;49.374;8.584;2023-03-23T12:31:07;99989.38;;;16.11;100.00
24486;BME280;13449;49.374;8.584;2023-03-23T12:37:01;99986.16;;;16.09;100.00
24486;BME280;13449;49.374;8.584;2023-03-23T12:42:56;99987.91;;;15.97;100.00
24486;BME280;13449;49.374;8.584;2023-03-23T12:45:16;99981.19;;;16.12;100.00
24486;BME280;13449;49.374;8.584;2023-03-23T12:47:50;99974.75;;;16.02;100.00
24486;BME280;13449;49.374;8.584;2023-03-23T12:50:27;99975.28;;;16.10;100.00
24486;BME280;13449;49.374;8.584;2023-03-23T12:55:37;99976.28;;;16.28;100.00
24486;BME280;13449;49.374;8.584;2023-03-23T13:03:19;99961.88;;;16.05;100.00
24486;BME280;13449;49.374;8.584;2023-03-23T13:05:51;99955.09;;;16.21;100.00
24486;BME280;13449;49.374;8.584;2023-03-23T13:08:31;99929.75;;;16.37;100.00
24486;BME280;13449;49.374;8.584;2023-03-23T13:11:03;99924.97;;;16.57;100.00
24486;BME280;13449;49.374;8.584;2023-03-23T13:13:49;99948.59;;;16.35;100.00
24486;BME280;13449;49.374;8.584;2023-03-23T13:16:34;99939.69;;;16.11;100.00
24486;BME280;13449;49.374;8.584;2023-03-23T13:19:16;99937.03;;;16.11;100.00
24486;BME280;13449;49.374;8.584;2023-03-23T13:22:01;99938.22;;;16.16;100.00
24486;BME280;13449;49.374;8.584;2023-03-23T13:24:30;99947.00;;;16.16;100.00
24486;BME280;13449;49.374;8.584;2023-03-23T13:26:58;99935.97;;;16.01;100.00
24486;BME280;13449;49.374;8.584;2023-03-23T13:29:26;99938.31;;;16.09;100.00
24486;BME280;13449;49.374;8.584;2023-03-23T13:32:10;99937.75;;;15.88;100.00
24486;BME280;13449;49.374;8.584;2023-03-23T13:34:36;99942.16;;;15.95;100.00
24486;BME280;13449;49.374;8.584;2023-03-23T13:37:10;99936.22;;;15.81;100.00
24486;BME280;13449;49.374;8.584;2023-03-23T13:40:11;99931.19;;;15.91;100.00
24486;BME280;13449;49.374;8.584;2023-03-23T13:42:56;99942.03;;;15.89;100.00
24486;BME280;13449;49.374;8.584;2023-03-23T13:53:43;99940.31;;;15.58;100.00
24486;BME280;13449;49.374;8.584;2023-03-23T13:56:20;99938.03;;;15.62;100.00
24486;BME280;13449;49.374;8.584;2023-03-23T13:58:49;99938.53;;;15.52;100.00
24486;BME280;13449;49.374;8.584;2023-03-23T14:01:18;99940.06;;;15.67;100.00
24486;BME280;13449;49.374;8.584;2023-03-23T14:03:48;99931.75;;;15.56;100.00
24486;BME280;13449;49.374;8.584;2023-03-23T14:06:19;99932.50;;;15.45;100.00
24486;BME280;13449;49.374;8.584;2023-03-23T14:08:50;99921.94;;;15.38;100.00